VCV78 SVMI-SVVG
Flight info
| Callsign | VCV78 |
|---|---|
| Flight time | 0h 58m |
| Altitude | 36000 |
| Route | BUTSA2 PBL UW40 BRM UW8 GEGEN DCT GUAYA |
| Aircraft | E190/M-SDE3GILORVW/S |
Departure
| Time | 2026-05-07 00:10 |
|---|---|
| Airport | Maiquetía Simón Bolívar International Airport (SVMI) |
Arrival
| Time | 2026-05-07 01:09 |
|---|---|
| Airport | Juan Pablo Pérez Alfonso Airport (SVVG) |
| Time | Latitude | Longitude | Altitude | Speed | Heading |
|---|---|---|---|---|---|
| 2026-05-06 23:53 | 10.59832 | -67.00077 | 220 ft | 0 kts | 178° |
| 2026-05-07 00:01 | 10.59851 | -67.00078 | 221 ft | 4 kts | 178° |
| 2026-05-07 00:01 | 10.59878 | -67.00079 | 221 ft | 3 kts | 178° |
| 2026-05-07 00:01 | 10.59900 | -67.00078 | 222 ft | 4 kts | 212° |
| 2026-05-07 00:02 | 10.59911 | -67.00060 | 220 ft | 4 kts | 270° |
| 2026-05-07 00:02 | 10.59911 | -67.00042 | 220 ft | 1 kts | 268° |
| 2026-05-07 00:04 | 10.59911 | -67.00045 | 220 ft | 1 kts | 268° |
| 2026-05-07 00:05 | 10.59910 | -67.00054 | 220 ft | 2 kts | 268° |
| 2026-05-07 00:05 | 10.59910 | -67.00075 | 220 ft | 4 kts | 268° |
| 2026-05-07 00:05 | 10.59909 | -67.00110 | 221 ft | 6 kts | 268° |
| 2026-05-07 00:05 | 10.59907 | -67.00158 | 221 ft | 8 kts | 268° |
| 2026-05-07 00:06 | 10.59909 | -67.00219 | 222 ft | 9 kts | 280° |
| 2026-05-07 00:06 | 10.59937 | -67.00281 | 223 ft | 11 kts | 318° |
| 2026-05-07 00:06 | 10.60000 | -67.00323 | 224 ft | 12 kts | 293° |
| 2026-05-07 00:06 | 10.60001 | -67.00412 | 225 ft | 13 kts | 267° |
| 2026-05-07 00:07 | 10.59998 | -67.00510 | 227 ft | 15 kts | 269° |
| 2026-05-07 00:07 | 10.59995 | -67.00616 | 229 ft | 16 kts | 268° |
| 2026-05-07 00:07 | 10.59991 | -67.00732 | 231 ft | 17 kts | 268° |
| 2026-05-07 00:07 | 10.59987 | -67.00856 | 233 ft | 18 kts | 268° |
| 2026-05-07 00:08 | 10.59983 | -67.00989 | 235 ft | 19 kts | 268° |
| 2026-05-07 00:08 | 10.59979 | -67.01117 | 238 ft | 17 kts | 269° |
| 2026-05-07 00:08 | 10.59991 | -67.01225 | 240 ft | 15 kts | 309° |
| 2026-05-07 00:08 | 10.60093 | -67.01246 | 240 ft | 16 kts | 351° |
| 2026-05-07 00:09 | 10.60207 | -67.01247 | 237 ft | 15 kts | 358° |
| 2026-05-07 00:09 | 10.60314 | -67.01251 | 239 ft | 15 kts | 358° |
| 2026-05-07 00:09 | 10.60381 | -67.01228 | 240 ft | 10 kts | 73° |
| 2026-05-07 00:09 | 10.60385 | -67.01113 | 237 ft | 31 kts | 88° |
| 2026-05-07 00:10 | 10.60399 | -67.00681 | 231 ft | 93 kts | 89° |
| 2026-05-07 00:10 | 10.60425 | -66.99813 | 222 ft | 150 kts | 88° |
| 2026-05-07 00:10 | 10.60481 | -66.98639 | 516 ft | 175 kts | 88° |
| 2026-05-07 00:10 | 10.60545 | -66.97403 | 1249 ft | 179 kts | 88° |
| 2026-05-07 00:11 | 10.60680 | -66.96103 | 2074 ft | 190 kts | 83° |
| 2026-05-07 00:11 | 10.60900 | -66.94792 | 3123 ft | 182 kts | 80° |
| 2026-05-07 00:11 | 10.61231 | -66.93577 | 4141 ft | 178 kts | 73° |
| 2026-05-07 00:11 | 10.61756 | -66.92373 | 4727 ft | 201 kts | 66° |
| 2026-05-07 00:12 | 10.62569 | -66.90991 | 4484 ft | 267 kts | 59° |
| 2026-05-07 00:12 | 10.63821 | -66.89215 | 4087 ft | 326 kts | 53° |
| 2026-05-07 00:12 | 10.65386 | -66.87645 | 5077 ft | 319 kts | 33° |
| 2026-05-07 00:12 | 10.67501 | -66.86962 | 6241 ft | 320 kts | 6° |
| 2026-05-07 00:13 | 10.69637 | -66.87264 | 6675 ft | 312 kts | 339° |
| 2026-05-07 00:13 | 10.71572 | -66.88208 | 6873 ft | 306 kts | 333° |
| 2026-05-07 00:13 | 10.73487 | -66.89080 | 7816 ft | 298 kts | 340° |
| 2026-05-07 00:13 | 10.75521 | -66.89535 | 8858 ft | 300 kts | 357° |
| 2026-05-07 00:14 | 10.77596 | -66.89618 | 9862 ft | 304 kts | 1° |
| 2026-05-07 00:14 | 10.79751 | -66.89626 | 10658 ft | 316 kts | 0° |
| 2026-05-07 00:14 | 10.81955 | -66.90057 | 11431 ft | 333 kts | 338° |
| 2026-05-07 00:14 | 10.83870 | -66.91449 | 12316 ft | 345 kts | 314° |
| 2026-05-07 00:15 | 10.85159 | -66.93532 | 13257 ft | 355 kts | 292° |
| 2026-05-07 00:15 | 10.85593 | -66.96026 | 14120 ft | 363 kts | 272° |
| 2026-05-07 00:15 | 10.85504 | -66.98609 | 15013 ft | 368 kts | 268° |
| 2026-05-07 00:15 | 10.85374 | -67.01220 | 15919 ft | 372 kts | 269° |
| 2026-05-07 00:16 | 10.85265 | -67.03866 | 16834 ft | 376 kts | 270° |
| 2026-05-07 00:16 | 10.85150 | -67.06513 | 17692 ft | 380 kts | 270° |
| 2026-05-07 00:16 | 10.85007 | -67.09215 | 18483 ft | 384 kts | 269° |
| 2026-05-07 00:16 | 10.84832 | -67.11945 | 19237 ft | 386 kts | 268° |
| 2026-05-07 00:17 | 10.84622 | -67.14683 | 19900 ft | 391 kts | 268° |
| 2026-05-07 00:17 | 10.84356 | -67.17450 | 20067 ft | 396 kts | 266° |
| 2026-05-07 00:17 | 10.84041 | -67.20187 | 20406 ft | 388 kts | 264° |
| 2026-05-07 00:17 | 10.83567 | -67.22887 | 21276 ft | 387 kts | 260° |
| 2026-05-07 00:18 | 10.82893 | -67.25554 | 21987 ft | 390 kts | 256° |
| 2026-05-07 00:18 | 10.82161 | -67.28224 | 22657 ft | 392 kts | 257° |
| 2026-05-07 00:18 | 10.81426 | -67.30907 | 23302 ft | 395 kts | 257° |
| 2026-05-07 00:18 | 10.80682 | -67.33608 | 23860 ft | 398 kts | 256° |
| 2026-05-07 00:19 | 10.79931 | -67.36327 | 24370 ft | 400 kts | 257° |
| 2026-05-07 00:19 | 10.79177 | -67.39056 | 24876 ft | 401 kts | 256° |
| 2026-05-07 00:19 | 10.78428 | -67.41759 | 25352 ft | 403 kts | 256° |
| 2026-05-07 00:19 | 10.77660 | -67.44521 | 25808 ft | 405 kts | 256° |
| 2026-05-07 00:20 | 10.76888 | -67.47294 | 26255 ft | 407 kts | 256° |
| 2026-05-07 00:20 | 10.76114 | -67.50073 | 26696 ft | 409 kts | 256° |
| 2026-05-07 00:20 | 10.75337 | -67.52861 | 27148 ft | 411 kts | 256° |
| 2026-05-07 00:20 | 10.74562 | -67.55641 | 27585 ft | 412 kts | 256° |
| 2026-05-07 00:21 | 10.73776 | -67.58459 | 28033 ft | 414 kts | 256° |
| 2026-05-07 00:21 | 10.72986 | -67.61286 | 28452 ft | 416 kts | 256° |
| 2026-05-07 00:21 | 10.72191 | -67.64131 | 28852 ft | 418 kts | 255° |
| 2026-05-07 00:21 | 10.71403 | -67.66949 | 29299 ft | 418 kts | 255° |
| 2026-05-07 00:22 | 10.70606 | -67.69793 | 29742 ft | 419 kts | 255° |
| 2026-05-07 00:22 | 10.69808 | -67.72645 | 30150 ft | 418 kts | 255° |
| 2026-05-07 00:22 | 10.68203 | -67.78372 | 30105 ft | 420 kts | 255° |
| 2026-05-07 00:23 | 10.66601 | -67.84083 | 30098 ft | 419 kts | 255° |
| 2026-05-07 00:23 | 10.64350 | -67.89435 | 30624 ft | 418 kts | 233° |
| 2026-05-07 00:24 | 10.62462 | -67.91673 | 31044 ft | 417 kts | 230° |
| 2026-05-07 00:24 | 10.60542 | -67.93887 | 31420 ft | 416 kts | 231° |
| 2026-05-07 00:24 | 10.58621 | -67.96097 | 31750 ft | 417 kts | 230° |
| 2026-05-07 00:24 | 10.56695 | -67.98309 | 32046 ft | 418 kts | 230° |
| 2026-05-07 00:25 | 10.54754 | -68.00533 | 32301 ft | 421 kts | 230° |
| 2026-05-07 00:25 | 10.52803 | -68.02767 | 32518 ft | 425 kts | 230° |
| 2026-05-07 00:25 | 10.50833 | -68.05017 | 32781 ft | 427 kts | 230° |
| 2026-05-07 00:25 | 10.48952 | -68.07302 | 33064 ft | 426 kts | 238° |
| 2026-05-07 00:26 | 10.47645 | -68.09991 | 33330 ft | 425 kts | 251° |
| 2026-05-07 00:26 | 10.46657 | -68.12822 | 33670 ft | 424 kts | 251° |
| 2026-05-07 00:26 | 10.45676 | -68.15653 | 33977 ft | 425 kts | 251° |
| 2026-05-07 00:26 | 10.44693 | -68.18495 | 34237 ft | 425 kts | 251° |
| 2026-05-07 00:27 | 10.43711 | -68.21331 | 34498 ft | 425 kts | 251° |
| 2026-05-07 00:27 | 10.42742 | -68.24129 | 34769 ft | 425 kts | 251° |
| 2026-05-07 00:27 | 10.41762 | -68.26957 | 35048 ft | 424 kts | 251° |
| 2026-05-07 00:27 | 10.40784 | -68.29779 | 35338 ft | 423 kts | 251° |
| 2026-05-07 00:28 | 10.39808 | -68.32596 | 35633 ft | 422 kts | 251° |
| 2026-05-07 00:28 | 10.38833 | -68.35412 | 35921 ft | 421 kts | 251° |
| 2026-05-07 00:28 | 10.37866 | -68.38197 | 36173 ft | 415 kts | 251° |
| 2026-05-07 00:28 | 10.36909 | -68.40973 | 36153 ft | 417 kts | 251° |
| 2026-05-07 00:29 | 10.34992 | -68.46532 | 36153 ft | 420 kts | 251° |
| 2026-05-07 00:30 | 10.32086 | -68.54951 | 36052 ft | 421 kts | 251° |
| 2026-05-07 00:30 | 10.31115 | -68.57761 | 36062 ft | 421 kts | 251° |
| 2026-05-07 00:30 | 10.29186 | -68.63342 | 36060 ft | 421 kts | 251° |
| 2026-05-07 00:31 | 10.27239 | -68.68971 | 36061 ft | 422 kts | 251° |
| 2026-05-07 00:31 | 10.25291 | -68.74597 | 36061 ft | 422 kts | 251° |
| 2026-05-07 00:32 | 10.23343 | -68.80220 | 36062 ft | 422 kts | 251° |
| 2026-05-07 00:32 | 10.21404 | -68.85815 | 36063 ft | 422 kts | 251° |
| 2026-05-07 00:33 | 10.19577 | -68.91085 | 36061 ft | 422 kts | 251° |
| 2026-05-07 00:33 | 10.17620 | -68.96723 | 36063 ft | 422 kts | 251° |
| 2026-05-07 00:34 | 10.15675 | -69.02323 | 36062 ft | 423 kts | 251° |
| 2026-05-07 00:34 | 10.13718 | -69.07956 | 36060 ft | 423 kts | 251° |
| 2026-05-07 00:35 | 10.11768 | -69.13565 | 36059 ft | 423 kts | 251° |
| 2026-05-07 00:35 | 10.09808 | -69.19199 | 36061 ft | 423 kts | 251° |
| 2026-05-07 00:36 | 10.07839 | -69.24856 | 36061 ft | 423 kts | 251° |
| 2026-05-07 00:36 | 10.05884 | -69.30467 | 36060 ft | 424 kts | 250° |
| 2026-05-07 00:37 | 10.03776 | -69.36059 | 36074 ft | 424 kts | 244° |
| 2026-05-07 00:37 | 10.01079 | -69.41400 | 36061 ft | 425 kts | 243° |
| 2026-05-07 00:38 | 9.98824 | -69.45826 | 36067 ft | 425 kts | 243° |
| 2026-05-07 00:38 | 9.96110 | -69.51151 | 36069 ft | 425 kts | 243° |
| 2026-05-07 00:39 | 9.93393 | -69.56478 | 36067 ft | 426 kts | 243° |
| 2026-05-07 00:39 | 9.90674 | -69.61808 | 36073 ft | 426 kts | 243° |
| 2026-05-07 00:40 | 9.87950 | -69.67146 | 36074 ft | 426 kts | 243° |
| 2026-05-07 00:40 | 9.85224 | -69.72484 | 36083 ft | 426 kts | 243° |
| 2026-05-07 00:41 | 9.82495 | -69.77826 | 36082 ft | 427 kts | 243° |
| 2026-05-07 00:41 | 9.79766 | -69.83167 | 36086 ft | 427 kts | 243° |
| 2026-05-07 00:42 | 9.77053 | -69.88472 | 36095 ft | 427 kts | 243° |
| 2026-05-07 00:42 | 9.74317 | -69.93822 | 36093 ft | 427 kts | 243° |
| 2026-05-07 00:43 | 9.71584 | -69.99165 | 36105 ft | 426 kts | 243° |
| 2026-05-07 00:43 | 9.68854 | -70.04494 | 36098 ft | 426 kts | 243° |
| 2026-05-07 00:44 | 9.66128 | -70.09818 | 36107 ft | 426 kts | 243° |
| 2026-05-07 00:44 | 9.63391 | -70.15160 | 36106 ft | 426 kts | 243° |
| 2026-05-07 00:45 | 9.60650 | -70.20506 | 36102 ft | 428 kts | 243° |
| 2026-05-07 00:45 | 9.57920 | -70.25825 | 36094 ft | 429 kts | 243° |
| 2026-05-07 00:46 | 9.55170 | -70.31187 | 36092 ft | 429 kts | 243° |
| 2026-05-07 00:46 | 9.52413 | -70.36556 | 36084 ft | 429 kts | 243° |
| 2026-05-07 00:47 | 9.49659 | -70.41915 | 36088 ft | 429 kts | 243° |
| 2026-05-07 00:47 | 9.46902 | -70.47281 | 36083 ft | 429 kts | 243° |
| 2026-05-07 00:48 | 9.44145 | -70.52645 | 36092 ft | 430 kts | 243° |
| 2026-05-07 00:48 | 9.41108 | -70.57855 | 36111 ft | 430 kts | 236° |
| 2026-05-07 00:49 | 9.37691 | -70.62829 | 36120 ft | 431 kts | 235° |
| 2026-05-07 00:49 | 9.34261 | -70.67815 | 35861 ft | 433 kts | 235° |
| 2026-05-07 00:50 | 9.32502 | -70.70371 | 34631 ft | 450 kts | 236° |
| 2026-05-07 00:50 | 9.30711 | -70.72973 | 33364 ft | 460 kts | 236° |
| 2026-05-07 00:50 | 9.28867 | -70.75653 | 32038 ft | 467 kts | 236° |
| 2026-05-07 00:50 | 9.26995 | -70.78374 | 30714 ft | 474 kts | 236° |
| 2026-05-07 00:51 | 9.25102 | -70.81129 | 29276 ft | 479 kts | 236° |
| 2026-05-07 00:51 | 9.23188 | -70.83911 | 27759 ft | 484 kts | 236° |
| 2026-05-07 00:51 | 9.21272 | -70.86696 | 27087 ft | 473 kts | 236° |
| 2026-05-07 00:51 | 9.19412 | -70.89397 | 26403 ft | 463 kts | 236° |
| 2026-05-07 00:52 | 9.17605 | -70.92023 | 26128 ft | 444 kts | 236° |
| 2026-05-07 00:52 | 9.15873 | -70.94536 | 25559 ft | 434 kts | 236° |
| 2026-05-07 00:52 | 9.14140 | -70.97056 | 24738 ft | 435 kts | 236° |
| 2026-05-07 00:52 | 9.12428 | -70.99539 | 24187 ft | 427 kts | 236° |
| 2026-05-07 00:53 | 9.10736 | -71.01995 | 23598 ft | 422 kts | 236° |
| 2026-05-07 00:53 | 9.09087 | -71.04388 | 23001 ft | 415 kts | 236° |
| 2026-05-07 00:53 | 9.07455 | -71.06757 | 22460 ft | 407 kts | 236° |
| 2026-05-07 00:53 | 9.05847 | -71.09089 | 21933 ft | 400 kts | 236° |
| 2026-05-07 00:54 | 9.04263 | -71.11387 | 21416 ft | 396 kts | 236° |
| 2026-05-07 00:54 | 9.02689 | -71.13669 | 20881 ft | 395 kts | 236° |
| 2026-05-07 00:54 | 9.01120 | -71.15945 | 20369 ft | 394 kts | 236° |
| 2026-05-07 00:54 | 8.99552 | -71.18221 | 19836 ft | 394 kts | 236° |
| 2026-05-07 00:55 | 8.97984 | -71.20495 | 19306 ft | 393 kts | 236° |
| 2026-05-07 00:55 | 8.96420 | -71.22759 | 18790 ft | 392 kts | 235° |
| 2026-05-07 00:55 | 8.94862 | -71.25016 | 18264 ft | 390 kts | 236° |
| 2026-05-07 00:55 | 8.93317 | -71.27254 | 17735 ft | 386 kts | 235° |
| 2026-05-07 00:56 | 8.91788 | -71.29468 | 17223 ft | 382 kts | 235° |
| 2026-05-07 00:56 | 8.90276 | -71.31658 | 16731 ft | 378 kts | 235° |
| 2026-05-07 00:56 | 8.88778 | -71.33830 | 16226 ft | 375 kts | 234° |
| 2026-05-07 00:56 | 8.87292 | -71.35979 | 15731 ft | 371 kts | 234° |
| 2026-05-07 00:57 | 8.85818 | -71.38108 | 15225 ft | 367 kts | 233° |
| 2026-05-07 00:57 | 8.84206 | -71.40081 | 14749 ft | 362 kts | 227° |
| 2026-05-07 00:57 | 8.82570 | -71.41995 | 14255 ft | 358 kts | 228° |
| 2026-05-07 00:57 | 8.80965 | -71.43896 | 13778 ft | 353 kts | 228° |
| 2026-05-07 00:58 | 8.79388 | -71.45772 | 13300 ft | 347 kts | 229° |
| 2026-05-07 00:58 | 8.77925 | -71.47648 | 12836 ft | 332 kts | 231° |
| 2026-05-07 00:58 | 8.76525 | -71.49447 | 12414 ft | 318 kts | 230° |
| 2026-05-07 00:58 | 8.75188 | -71.51160 | 12033 ft | 312 kts | 230° |
| 2026-05-07 00:59 | 8.72529 | -71.54567 | 11190 ft | 306 kts | 230° |
| 2026-05-07 00:59 | 8.71217 | -71.56248 | 10797 ft | 304 kts | 230° |
| 2026-05-07 00:59 | 8.69914 | -71.57921 | 10382 ft | 302 kts | 230° |
| 2026-05-07 01:00 | 8.68619 | -71.59579 | 9989 ft | 299 kts | 231° |
| 2026-05-07 01:00 | 8.67337 | -71.61228 | 9558 ft | 296 kts | 230° |
| 2026-05-07 01:00 | 8.66063 | -71.62860 | 9207 ft | 294 kts | 230° |
| 2026-05-07 01:00 | 8.64798 | -71.64482 | 8797 ft | 294 kts | 231° |
| 2026-05-07 01:01 | 8.63536 | -71.66100 | 8408 ft | 292 kts | 231° |
| 2026-05-07 01:01 | 8.62280 | -71.67713 | 7969 ft | 291 kts | 231° |
| 2026-05-07 01:01 | 8.61095 | -71.69335 | 7492 ft | 283 kts | 235° |
| 2026-05-07 01:01 | 8.60029 | -71.70938 | 7034 ft | 275 kts | 235° |
| 2026-05-07 01:02 | 8.58962 | -71.72520 | 6544 ft | 268 kts | 234° |
| 2026-05-07 01:02 | 8.57914 | -71.74058 | 6014 ft | 262 kts | 235° |
| 2026-05-07 01:02 | 8.56904 | -71.75554 | 5602 ft | 254 kts | 235° |
| 2026-05-07 01:02 | 8.55909 | -71.77022 | 5192 ft | 252 kts | 235° |
| 2026-05-07 01:03 | 8.54922 | -71.78470 | 4808 ft | 247 kts | 235° |
| 2026-05-07 01:03 | 8.54215 | -71.80019 | 4359 ft | 242 kts | 261° |
| 2026-05-07 01:03 | 8.54468 | -71.81626 | 4033 ft | 233 kts | 298° |
| 2026-05-07 01:03 | 8.55589 | -71.82686 | 3777 ft | 215 kts | 336° |
| 2026-05-07 01:04 | 8.56946 | -71.83202 | 3510 ft | 203 kts | 340° |
| 2026-05-07 01:04 | 8.58268 | -71.83514 | 3326 ft | 188 kts | 359° |
| 2026-05-07 01:04 | 8.59442 | -71.83163 | 3076 ft | 169 kts | 42° |
| 2026-05-07 01:04 | 8.59989 | -71.82233 | 3204 ft | 145 kts | 68° |
| 2026-05-07 01:05 | 8.60428 | -71.81302 | 3617 ft | 151 kts | 69° |
| 2026-05-07 01:05 | 8.60612 | -71.80206 | 3295 ft | 164 kts | 86° |
| 2026-05-07 01:05 | 8.60722 | -71.79079 | 3056 ft | 158 kts | 80° |
| 2026-05-07 01:05 | 8.60915 | -71.78028 | 2852 ft | 144 kts | 80° |
| 2026-05-07 01:06 | 8.61046 | -71.77056 | 2667 ft | 135 kts | 84° |
| 2026-05-07 01:06 | 8.61174 | -71.76121 | 2610 ft | 128 kts | 81° |
| 2026-05-07 01:06 | 8.61303 | -71.75213 | 2446 ft | 141 kts | 83° |
| 2026-05-07 01:06 | 8.61432 | -71.74227 | 2052 ft | 143 kts | 82° |
| 2026-05-07 01:07 | 8.61596 | -71.73246 | 1668 ft | 139 kts | 82° |
| 2026-05-07 01:07 | 8.61738 | -71.72296 | 1300 ft | 133 kts | 82° |
| 2026-05-07 01:07 | 8.61844 | -71.71364 | 985 ft | 139 kts | 84° |
| 2026-05-07 01:07 | 8.61983 | -71.70374 | 734 ft | 144 kts | 82° |
| 2026-05-07 01:08 | 8.62125 | -71.69373 | 471 ft | 142 kts | 82° |
| 2026-05-07 01:08 | 8.62253 | -71.68426 | 281 ft | 125 kts | 83° |
| 2026-05-07 01:08 | 8.62355 | -71.67690 | 260 ft | 83 kts | 82° |
| 2026-05-07 01:08 | 8.62417 | -71.67248 | 267 ft | 55 kts | 82° |
| 2026-05-07 01:09 | 8.62468 | -71.66880 | 260 ft | 51 kts | 82° |
| 2026-05-07 01:09 | 8.62514 | -71.66554 | 261 ft | 34 kts | 81° |
| 2026-05-07 01:09 | 8.62537 | -71.66397 | 262 ft | 15 kts | 83° |
| 2026-05-07 01:09 | 8.62478 | -71.66336 | 263 ft | 12 kts | 168° |
| 2026-05-07 01:10 | 8.62417 | -71.66325 | 262 ft | 7 kts | 171° |
| 2026-05-07 01:10 | 8.62392 | -71.66286 | 260 ft | 8 kts | 92° |
| 2026-05-07 01:10 | 8.62396 | -71.66227 | 262 ft | 8 kts | 99° |
| 2026-05-07 01:10 | 8.62364 | -71.66205 | 264 ft | 4 kts | 166° |
| 2026-05-07 01:11 | 8.62350 | -71.66203 | 265 ft | 1 kts | 169° |
| 2026-05-07 01:11 | 8.62339 | -71.66201 | 264 ft | 1 kts | 170° |
| 2026-05-07 01:11 | 8.62333 | -71.66200 | 264 ft | 0 kts | 171° |